createdAt,value
2023-02-13T00:00:00.957Z,453.00
2023-02-13T00:00:31.060Z,452.00
2023-02-13T00:01:01.189Z,451.00
2023-02-13T00:01:31.278Z,449.00
2023-02-13T00:02:01.439Z,451.00
2023-02-13T00:02:31.511Z,450.00
2023-02-13T00:03:01.497Z,450.00
2023-02-13T00:03:31.678Z,451.00
2023-02-13T00:04:01.662Z,452.00
2023-02-13T00:04:31.770Z,452.00
2023-02-13T00:05:01.890Z,453.00
2023-02-13T00:05:31.992Z,451.00
2023-02-13T00:06:02.123Z,452.00
2023-02-13T00:06:32.101Z,453.00
2023-02-13T00:07:02.219Z,453.00
2023-02-13T00:07:32.325Z,454.00
2023-02-13T00:08:02.448Z,452.00
2023-02-13T00:08:32.428Z,453.00
2023-02-13T00:09:02.574Z,451.00
2023-02-13T00:09:32.665Z,451.00
2023-02-13T00:10:02.775Z,450.00
2023-02-13T00:10:32.872Z,451.00
2023-02-13T00:11:02.967Z,453.00
2023-02-13T00:11:33.045Z,454.00
2023-02-13T00:12:03.126Z,455.00
2023-02-13T00:12:33.209Z,455.00
2023-02-13T00:13:03.290Z,456.00
2023-02-13T00:13:33.344Z,455.00
2023-02-13T00:14:03.416Z,454.00
2023-02-13T00:14:33.494Z,453.00
2023-02-13T00:15:03.603Z,453.00
2023-02-13T00:15:33.735Z,453.00
2023-02-13T00:16:03.721Z,455.00
2023-02-13T00:16:33.688Z,455.00
2023-02-13T00:17:03.753Z,455.00
2023-02-13T00:17:33.836Z,455.00
2023-02-13T00:18:03.920Z,455.00
2023-02-13T00:18:33.981Z,454.00
2023-02-13T00:19:04.075Z,454.00
2023-02-13T00:19:34.137Z,455.00
2023-02-13T00:20:04.202Z,455.00
2023-02-13T00:20:34.292Z,453.00
2023-02-13T00:21:04.416Z,455.00
2023-02-13T00:21:34.399Z,455.00
2023-02-13T00:22:04.526Z,454.00
2023-02-13T00:22:34.625Z,452.00
2023-02-13T00:23:04.735Z,452.00
2023-02-13T00:23:34.859Z,454.00
2023-02-13T00:24:04.964Z,453.00
2023-02-13T00:24:35.115Z,454.00
2023-02-13T00:25:05.075Z,454.00
2023-02-13T00:25:35.208Z,455.00
2023-02-13T00:26:05.196Z,455.00
2023-02-13T00:26:35.202Z,455.00
2023-02-13T00:27:05.185Z,456.00
2023-02-13T00:27:35.308Z,454.00
2023-02-13T00:28:05.432Z,454.00
2023-02-13T00:28:35.591Z,452.00
2023-02-13T00:29:05.625Z,453.00
2023-02-13T00:29:35.619Z,451.00
2023-02-13T00:30:05.749Z,454.00
2023-02-13T00:30:35.843Z,453.00
2023-02-13T00:31:06.060Z,451.00
2023-02-13T00:31:36.128Z,449.00
2023-02-13T00:32:06.212Z,452.00
2023-02-13T00:32:36.186Z,453.00
2023-02-13T00:33:06.304Z,451.00
2023-02-13T00:33:36.422Z,452.00
2023-02-13T00:34:06.530Z,453.00
2023-02-13T00:34:36.659Z,452.00
2023-02-13T00:35:06.758Z,451.00
2023-02-13T00:35:36.864Z,451.00
2023-02-13T00:36:06.997Z,452.00
2023-02-13T00:36:36.982Z,453.00
2023-02-13T00:37:07.100Z,451.00
2023-02-13T00:37:37.204Z,453.00
2023-02-13T00:38:07.319Z,454.00
2023-02-13T00:38:37.429Z,451.00
2023-02-13T00:39:07.540Z,448.00
2023-02-13T00:39:37.729Z,448.00
2023-02-13T00:40:07.693Z,449.00
2023-02-13T00:40:37.806Z,450.00
2023-02-13T00:41:07.936Z,451.00
2023-02-13T00:41:37.923Z,452.00
2023-02-13T00:42:08.049Z,452.00
2023-02-13T00:42:38.166Z,454.00
2023-02-13T00:43:08.144Z,454.00
2023-02-13T00:43:38.273Z,454.00
2023-02-13T00:44:08.372Z,452.00
2023-02-13T00:44:38.485Z,452.00
2023-02-13T00:45:08.596Z,452.00
2023-02-13T00:45:38.728Z,453.00
2023-02-13T00:46:08.878Z,453.00
2023-02-13T00:46:38.987Z,453.00
2023-02-13T00:47:08.875Z,455.00
2023-02-13T00:47:38.999Z,454.00
2023-02-13T00:48:09.127Z,453.00
2023-02-13T00:48:39.136Z,453.00
2023-02-13T00:49:09.233Z,452.00
2023-02-13T00:49:39.350Z,455.00
2023-02-13T00:50:09.461Z,455.00
2023-02-13T00:50:39.574Z,456.00
2023-02-13T00:51:09.681Z,454.00
2023-02-13T00:51:39.803Z,454.00
2023-02-13T00:52:09.794Z,453.00
2023-02-13T00:52:39.912Z,454.00
2023-02-13T00:53:10.030Z,453.00
2023-02-13T00:53:40.136Z,455.00
2023-02-13T00:54:10.249Z,455.00
2023-02-13T00:54:40.336Z,454.00
2023-02-13T00:55:10.479Z,452.00
2023-02-13T00:55:40.563Z,452.00
2023-02-13T00:56:10.674Z,453.00
2023-02-13T00:56:40.810Z,456.00
2023-02-13T00:57:10.798Z,455.00
2023-02-13T00:57:40.907Z,455.00
2023-02-13T00:58:10.927Z,455.00
2023-02-13T00:58:40.971Z,455.00
2023-02-13T00:59:10.955Z,456.00
2023-02-13T00:59:41.074Z,454.00
2023-02-13T01:00:11.181Z,455.00
2023-02-13T01:00:41.288Z,455.00
2023-02-13T01:01:11.535Z,456.00
2023-02-13T01:01:41.460Z,457.00
2023-02-13T01:02:11.424Z,455.00
2023-02-13T01:02:41.545Z,455.00
2023-02-13T01:03:11.685Z,456.00
2023-02-13T01:03:41.715Z,457.00
2023-02-13T01:04:11.725Z,458.00
2023-02-13T01:04:41.841Z,459.00
2023-02-13T01:05:11.964Z,458.00
2023-02-13T01:05:42.068Z,460.00
2023-02-13T01:06:12.178Z,460.00
2023-02-13T01:06:42.306Z,458.00
2023-02-13T01:07:12.291Z,459.00
2023-02-13T01:07:42.418Z,458.00
2023-02-13T01:08:12.529Z,457.00
2023-02-13T01:08:42.653Z,456.00
2023-02-13T01:09:12.757Z,457.00
2023-02-13T01:09:42.743Z,455.00
2023-02-13T01:10:12.854Z,455.00
2023-02-13T01:10:42.965Z,454.00
2023-02-13T01:11:13.018Z,453.00
2023-02-13T01:11:43.116Z,454.00
2023-02-13T01:12:13.186Z,454.00
2023-02-13T01:12:43.275Z,454.00
2023-02-13T01:13:13.350Z,452.00
2023-02-13T01:13:43.419Z,452.00
2023-02-13T01:14:13.498Z,451.00
2023-02-13T01:14:43.570Z,448.00
2023-02-13T01:15:13.647Z,448.00
2023-02-13T01:15:43.770Z,446.00
2023-02-13T01:16:13.881Z,447.00
2023-02-13T01:16:43.873Z,447.00
2023-02-13T01:17:13.948Z,446.00
2023-02-13T01:17:44.023Z,445.00
2023-02-13T01:18:14.099Z,447.00
2023-02-13T01:18:44.169Z,448.00
2023-02-13T01:19:14.245Z,449.00
2023-02-13T01:19:44.317Z,451.00
2023-02-13T01:20:14.396Z,453.00
2023-02-13T01:20:44.505Z,453.00
2023-02-13T01:21:14.605Z,452.00
2023-02-13T01:21:44.777Z,450.00
2023-02-13T01:22:14.786Z,449.00
2023-02-13T01:22:44.883Z,449.00
2023-02-13T01:23:14.998Z,450.00
2023-02-13T01:23:45.122Z,451.00
2023-02-13T01:24:15.226Z,454.00
2023-02-13T01:24:45.359Z,453.00
2023-02-13T01:25:15.458Z,453.00
2023-02-13T01:25:45.568Z,452.00
2023-02-13T01:26:15.703Z,450.00
2023-02-13T01:26:45.818Z,450.00
2023-02-13T01:27:17.208Z,450.00
2023-02-13T01:27:45.841Z,452.00
2023-02-13T01:28:15.967Z,453.00
2023-02-13T01:28:45.946Z,454.00
2023-02-13T01:29:16.061Z,453.00
2023-02-13T01:29:46.174Z,453.00
2023-02-13T01:30:16.292Z,452.00
2023-02-13T01:30:46.438Z,453.00
2023-02-13T01:31:16.566Z,452.00
2023-02-13T01:31:46.610Z,450.00
2023-02-13T01:32:16.628Z,447.00
2023-02-13T01:32:46.523Z,446.00
2023-02-13T01:33:16.635Z,447.00
2023-02-13T01:33:46.756Z,449.00
2023-02-13T01:34:16.863Z,448.00
2023-02-13T01:34:46.998Z,448.00
2023-02-13T01:35:16.981Z,445.00
2023-02-13T01:35:47.096Z,446.00
2023-02-13T01:36:17.245Z,446.00
2023-02-13T01:36:47.254Z,447.00
2023-02-13T01:37:17.263Z,447.00
2023-02-13T01:37:47.254Z,448.00
2023-02-13T01:38:17.373Z,448.00
2023-02-13T01:38:47.480Z,447.00
2023-02-13T01:39:17.593Z,447.00
2023-02-13T01:39:47.713Z,445.00
2023-02-13T01:40:17.816Z,444.00
2023-02-13T01:40:47.932Z,444.00
2023-02-13T01:41:18.087Z,443.00
2023-02-13T01:41:48.048Z,443.00
2023-02-13T01:42:18.161Z,443.00
2023-02-13T01:42:48.272Z,443.00
2023-02-13T01:43:18.427Z,441.00
2023-02-13T01:43:48.474Z,443.00
2023-02-13T01:44:18.448Z,444.00
2023-02-13T01:44:48.566Z,441.00
2023-02-13T01:45:18.677Z,440.00
2023-02-13T01:45:48.803Z,439.00
2023-02-13T01:46:18.956Z,440.00
2023-02-13T01:46:48.997Z,440.00
2023-02-13T01:47:18.999Z,441.00
2023-02-13T01:47:48.989Z,441.00
2023-02-13T01:48:19.104Z,442.00
2023-02-13T01:48:49.222Z,439.00
2023-02-13T01:49:19.336Z,438.00
2023-02-13T01:49:49.450Z,441.00
2023-02-13T01:50:19.582Z,442.00
2023-02-13T01:50:49.674Z,441.00
2023-02-13T01:51:19.788Z,440.00
2023-02-13T01:51:49.802Z,441.00
2023-02-13T01:52:19.937Z,441.00
2023-02-13T01:52:49.924Z,442.00
2023-02-13T01:53:20.038Z,442.00
2023-02-13T01:53:50.153Z,442.00
2023-02-13T01:54:20.303Z,442.00
2023-02-13T01:54:50.296Z,444.00
2023-02-13T01:55:20.414Z,445.00
2023-02-13T01:55:50.520Z,445.00
2023-02-13T01:56:20.660Z,445.00
2023-02-13T01:56:50.745Z,443.00
2023-02-13T01:57:20.868Z,442.00
2023-02-13T01:57:50.854Z,440.00
2023-02-13T01:58:20.971Z,437.00
2023-02-13T01:58:51.082Z,438.00
2023-02-13T01:59:21.212Z,437.00
2023-02-13T01:59:51.198Z,437.00
2023-02-13T02:00:21.238Z,439.00
2023-02-13T02:00:51.350Z,439.00
2023-02-13T02:01:21.507Z,440.00
2023-02-13T02:01:51.631Z,441.00
2023-02-13T02:02:21.688Z,440.00
2023-02-13T02:02:51.636Z,439.00
2023-02-13T02:03:21.622Z,439.00
2023-02-13T02:03:51.747Z,437.00
2023-02-13T02:04:21.744Z,437.00
2023-02-13T02:04:51.856Z,438.00
2023-02-13T02:05:21.980Z,438.00
2023-02-13T02:05:52.084Z,436.00
2023-02-13T02:06:22.238Z,438.00
2023-02-13T02:06:52.208Z,439.00
2023-02-13T02:07:22.328Z,440.00
2023-02-13T02:07:52.435Z,441.00
2023-02-13T02:08:22.543Z,442.00
2023-02-13T02:08:52.661Z,443.00
2023-02-13T02:09:22.804Z,442.00
2023-02-13T02:09:52.880Z,441.00
2023-02-13T02:11:01.624Z,455.00
2023-02-13T02:11:31.759Z,446.00
2023-02-13T02:12:01.805Z,446.00
2023-02-13T02:12:31.882Z,445.00
2023-02-13T02:13:01.973Z,443.00
2023-02-13T02:13:32.060Z,441.00
2023-02-13T02:14:02.130Z,441.00
2023-02-13T02:14:32.205Z,442.00
2023-02-13T02:15:02.276Z,443.00
2023-02-13T02:15:32.350Z,443.00
2023-02-13T02:16:02.541Z,442.00
2023-02-13T02:16:32.488Z,441.00
2023-02-13T02:17:02.560Z,442.00
2023-02-13T02:17:32.630Z,442.00
2023-02-13T02:18:02.701Z,441.00
2023-02-13T02:18:32.774Z,441.00
2023-02-13T02:19:02.847Z,441.00
2023-02-13T02:19:32.920Z,441.00
2023-02-13T02:20:02.996Z,444.00
2023-02-13T02:20:33.068Z,442.00
2023-02-13T02:21:03.178Z,443.00
2023-02-13T02:21:33.308Z,442.00
2023-02-13T02:22:03.290Z,441.00
2023-02-13T02:22:33.407Z,442.00
2023-02-13T02:23:03.524Z,441.00
2023-02-13T02:23:33.633Z,439.00
2023-02-13T02:24:03.751Z,438.00
2023-02-13T02:24:33.856Z,438.00
2023-02-13T02:25:03.965Z,439.00
2023-02-13T02:25:34.096Z,438.00
2023-02-13T02:26:04.194Z,437.00
2023-02-13T02:26:34.345Z,439.00
2023-02-13T02:27:04.300Z,439.00
2023-02-13T02:27:34.412Z,437.00
2023-02-13T02:28:04.632Z,437.00
2023-02-13T02:28:34.699Z,438.00
2023-02-13T02:29:04.701Z,438.00
2023-02-13T02:29:34.819Z,439.00
2023-02-13T02:30:04.930Z,439.00
2023-02-13T02:30:35.115Z,440.00
2023-02-13T02:31:05.181Z,439.00
2023-02-13T02:31:35.291Z,439.00
2023-02-13T02:32:05.312Z,438.00
2023-02-13T02:32:35.430Z,438.00
2023-02-13T02:33:05.579Z,440.00
2023-02-13T02:33:35.566Z,440.00
2023-02-13T02:34:05.673Z,441.00
2023-02-13T02:34:35.787Z,440.00
2023-02-13T02:35:05.911Z,439.00
2023-02-13T02:35:36.005Z,439.00
2023-02-13T02:36:06.115Z,439.00
2023-02-13T02:36:36.236Z,439.00
2023-02-13T02:37:06.236Z,438.00
2023-02-13T02:37:36.338Z,439.00
2023-02-13T02:38:06.457Z,441.00
2023-02-13T02:38:36.450Z,441.00
2023-02-13T02:39:06.598Z,443.00
2023-02-13T02:39:36.685Z,442.00
2023-02-13T02:40:06.678Z,440.00
2023-02-13T02:40:36.785Z,442.00
2023-02-13T02:41:06.773Z,443.00
2023-02-13T02:41:36.931Z,441.00
2023-02-13T02:42:06.899Z,440.00
2023-02-13T02:42:37.006Z,442.00
2023-02-13T02:43:07.134Z,442.00
2023-02-13T02:43:37.119Z,443.00
2023-02-13T02:44:07.231Z,444.00
2023-02-13T02:44:37.343Z,444.00
2023-02-13T02:45:07.449Z,445.00
2023-02-13T02:45:37.559Z,446.00
2023-02-13T02:46:07.672Z,446.00
2023-02-13T02:46:37.885Z,447.00
2023-02-13T02:47:07.870Z,448.00
2023-02-13T02:47:37.981Z,450.00
2023-02-13T02:48:08.100Z,450.00
2023-02-13T02:48:38.206Z,449.00
2023-02-13T02:49:08.318Z,450.00
2023-02-13T02:49:38.428Z,450.00
2023-02-13T02:50:08.540Z,450.00
2023-02-13T02:50:38.654Z,448.00
2023-02-13T02:51:08.770Z,448.00
2023-02-13T02:51:38.893Z,449.00
2023-02-13T02:52:08.915Z,451.00
2023-02-13T02:52:38.882Z,450.00
2023-02-13T02:53:08.991Z,452.00
2023-02-13T02:53:39.101Z,453.00
2023-02-13T02:54:09.217Z,454.00
2023-02-13T02:54:39.344Z,452.00
2023-02-13T02:55:09.451Z,451.00
2023-02-13T02:55:39.556Z,452.00
2023-02-13T02:56:09.674Z,451.00
2023-02-13T02:56:39.857Z,452.00
2023-02-13T02:57:09.820Z,452.00
2023-02-13T02:57:39.815Z,453.00
2023-02-13T02:58:09.929Z,452.00
2023-02-13T02:58:40.059Z,452.00
2023-02-13T02:59:10.046Z,451.00
2023-02-13T02:59:40.161Z,451.00
2023-02-13T03:00:10.277Z,450.00
2023-02-13T03:00:40.439Z,450.00
2023-02-13T03:01:10.530Z,449.00
2023-02-13T03:01:40.554Z,449.00
2023-02-13T03:02:10.669Z,446.00
2023-02-13T03:02:40.787Z,447.00
2023-02-13T03:03:10.898Z,447.00
2023-02-13T03:03:40.911Z,449.00
2023-02-13T03:04:11.006Z,450.00
2023-02-13T03:04:40.964Z,449.00
2023-02-13T03:05:11.079Z,450.00
2023-02-13T03:05:41.193Z,453.00
2023-02-13T03:06:11.326Z,453.00
2023-02-13T03:06:41.423Z,453.00
2023-02-13T03:07:11.520Z,452.00
2023-02-13T03:07:41.632Z,451.00
2023-02-13T03:08:11.749Z,451.00
2023-02-13T03:08:41.903Z,453.00
2023-02-13T03:09:11.881Z,452.00
2023-02-13T03:09:42.001Z,451.00
2023-02-13T03:10:12.122Z,452.00
2023-02-13T03:10:42.197Z,452.00
2023-02-13T03:11:12.272Z,449.00
2023-02-13T03:11:42.392Z,448.00
2023-02-13T03:12:12.434Z,447.00
2023-02-13T03:12:42.509Z,447.00
2023-02-13T03:13:12.583Z,445.00
2023-02-13T03:13:42.690Z,445.00
2023-02-13T03:14:12.765Z,447.00
2023-02-13T03:14:42.840Z,448.00
2023-02-13T03:15:12.912Z,449.00
2023-02-13T03:15:42.993Z,450.00
2023-02-13T03:16:13.140Z,453.00
2023-02-13T03:16:43.164Z,454.00
2023-02-13T03:17:13.165Z,455.00
2023-02-13T03:17:43.239Z,454.00
2023-02-13T03:18:13.324Z,454.00
2023-02-13T03:18:43.418Z,456.00
2023-02-13T03:19:13.493Z,456.00
2023-02-13T03:19:43.566Z,457.00
2023-02-13T03:20:13.637Z,458.00
2023-02-13T03:20:43.741Z,458.00
2023-02-13T03:21:13.842Z,457.00
2023-02-13T03:21:43.961Z,456.00
2023-02-13T03:22:14.080Z,453.00
2023-02-13T03:22:44.189Z,455.00
2023-02-13T03:23:14.327Z,453.00
2023-02-13T03:23:44.431Z,453.00
2023-02-13T03:24:14.414Z,453.00
2023-02-13T03:24:44.526Z,453.00
2023-02-13T03:25:14.647Z,452.00
2023-02-13T03:25:44.758Z,452.00
2023-02-13T03:26:14.870Z,451.00
2023-02-13T03:26:45.015Z,451.00
2023-02-13T03:27:15.098Z,450.00
2023-02-13T03:27:45.210Z,451.00
2023-02-13T03:28:15.454Z,452.00
2023-02-13T03:28:45.442Z,454.00
2023-02-13T03:29:15.424Z,452.00
2023-02-13T03:29:45.537Z,454.00
2023-02-13T03:30:15.646Z,454.00
2023-02-13T03:30:45.807Z,453.00
2023-02-13T03:31:15.815Z,453.00
2023-02-13T03:31:45.840Z,453.00
2023-02-13T03:32:15.823Z,454.00
2023-02-13T03:32:45.923Z,454.00
2023-02-13T03:33:16.042Z,455.00
2023-02-13T03:33:46.149Z,454.00
2023-02-13T03:34:16.262Z,453.00
2023-02-13T03:34:46.375Z,454.00
2023-02-13T03:35:16.485Z,454.00
2023-02-13T03:35:46.600Z,456.00
2023-02-13T03:36:16.712Z,458.00
2023-02-13T03:36:46.830Z,457.00
2023-02-13T03:37:16.942Z,452.00
2023-02-13T03:37:47.080Z,453.00
2023-02-13T03:38:17.179Z,452.00
2023-02-13T03:38:47.280Z,450.00
2023-02-13T03:39:17.419Z,449.00
2023-02-13T03:39:47.397Z,449.00
2023-02-13T03:40:17.512Z,449.00
2023-02-13T03:40:47.621Z,447.00
2023-02-13T03:41:17.735Z,446.00
2023-02-13T03:41:47.875Z,443.00
2023-02-13T03:42:17.965Z,444.00
2023-02-13T03:42:48.075Z,440.00
2023-02-13T03:43:18.189Z,441.00
2023-02-13T03:43:48.312Z,442.00
2023-02-13T03:44:18.424Z,442.00
2023-02-13T03:44:48.418Z,440.00
2023-02-13T03:45:18.529Z,441.00
2023-02-13T03:45:48.692Z,441.00
2023-02-13T03:46:18.761Z,442.00
2023-02-13T03:46:48.733Z,443.00
2023-02-13T03:47:18.851Z,446.00
2023-02-13T03:47:48.962Z,445.00
2023-02-13T03:48:19.071Z,446.00
2023-02-13T03:48:49.186Z,447.00
2023-02-13T03:49:19.318Z,448.00
2023-02-13T03:49:49.300Z,448.00
2023-02-13T03:50:19.412Z,449.00
2023-02-13T03:50:49.524Z,447.00
2023-02-13T03:51:19.642Z,447.00
2023-02-13T03:51:49.768Z,446.00
2023-02-13T03:52:19.746Z,447.00
2023-02-13T03:52:49.870Z,448.00
2023-02-13T03:53:19.981Z,446.00
2023-02-13T03:53:50.094Z,445.00
2023-02-13T03:54:20.246Z,444.00
2023-02-13T03:54:50.229Z,445.00
2023-02-13T03:55:20.345Z,445.00
2023-02-13T03:55:50.460Z,445.00
2023-02-13T03:56:20.578Z,446.00
2023-02-13T03:56:50.731Z,445.00
2023-02-13T03:57:20.690Z,445.00
2023-02-13T03:57:50.804Z,443.00
2023-02-13T03:58:20.912Z,445.00
2023-02-13T03:58:51.028Z,446.00
2023-02-13T03:59:21.171Z,447.00
2023-02-13T03:59:51.245Z,445.00
2023-02-13T04:00:21.363Z,447.00
2023-02-13T04:00:51.522Z,446.00
2023-02-13T04:01:21.616Z,446.00
2023-02-13T04:01:51.696Z,445.00
2023-02-13T04:02:21.739Z,445.00
2023-02-13T04:02:51.712Z,447.00
2023-02-13T04:03:21.825Z,449.00
2023-02-13T04:03:51.937Z,448.00
2023-02-13T04:04:22.060Z,448.00
2023-02-13T04:04:52.167Z,448.00
2023-02-13T04:05:22.279Z,449.00
2023-02-13T04:05:52.387Z,448.00
2023-02-13T04:06:22.526Z,448.00
2023-02-13T04:06:52.514Z,447.00
2023-02-13T04:07:22.626Z,445.00
2023-02-13T04:07:52.735Z,445.00
2023-02-13T04:08:22.864Z,445.00
2023-02-13T04:08:52.973Z,445.00
2023-02-13T04:09:23.086Z,446.00
2023-02-13T04:09:53.196Z,447.00
2023-02-13T04:10:23.311Z,448.00
2023-02-13T04:10:53.391Z,446.00
2023-02-13T04:11:23.504Z,446.00
2023-02-13T04:11:53.618Z,446.00
2023-02-13T04:12:23.663Z,446.00
2023-02-13T04:12:53.732Z,448.00
2023-02-13T04:13:23.823Z,449.00
2023-02-13T04:13:53.881Z,448.00
2023-02-13T04:14:23.954Z,449.00
2023-02-13T04:14:54.039Z,449.00
2023-02-13T04:15:24.109Z,450.00
2023-02-13T04:15:54.182Z,449.00
2023-02-13T04:16:24.366Z,450.00
2023-02-13T04:16:54.340Z,450.00
2023-02-13T04:17:24.396Z,450.00
2023-02-13T04:17:54.462Z,450.00
2023-02-13T04:18:24.553Z,450.00
2023-02-13T04:18:54.606Z,449.00
2023-02-13T04:19:24.681Z,448.00
2023-02-13T04:19:54.761Z,449.00
2023-02-13T04:20:24.833Z,449.00
2023-02-13T04:20:55.076Z,449.00
2023-02-13T04:21:24.978Z,449.00
2023-02-13T04:21:55.093Z,449.00
2023-02-13T04:22:25.210Z,452.00
2023-02-13T04:22:55.315Z,450.00
2023-02-13T04:23:25.430Z,450.00
2023-02-13T04:23:55.424Z,449.00
2023-02-13T04:24:25.536Z,449.00
2023-02-13T04:24:55.654Z,447.00
2023-02-13T04:25:25.767Z,445.00
2023-02-13T04:25:55.895Z,444.00
2023-02-13T04:26:25.998Z,443.00
2023-02-13T04:26:56.128Z,442.00
2023-02-13T04:27:26.222Z,441.00
2023-02-13T04:27:56.328Z,441.00
2023-02-13T04:28:26.504Z,441.00
2023-02-13T04:28:56.509Z,444.00
2023-02-13T04:29:26.629Z,443.00
2023-02-13T04:29:56.726Z,442.00
2023-02-13T04:30:26.899Z,441.00
2023-02-13T04:30:57.401Z,442.00
2023-02-13T04:31:27.073Z,439.00
2023-02-13T04:31:57.006Z,440.00
2023-02-13T04:32:26.970Z,438.00
2023-02-13T04:32:57.082Z,439.00
2023-02-13T04:33:27.197Z,442.00
2023-02-13T04:33:57.306Z,442.00
2023-02-13T04:34:27.424Z,442.00
2023-02-13T04:34:57.535Z,443.00
2023-02-13T04:35:27.652Z,444.00
2023-02-13T04:35:57.755Z,446.00
2023-02-13T04:36:27.885Z,446.00
2023-02-13T04:36:57.863Z,444.00
2023-02-13T04:37:27.983Z,441.00
2023-02-13T04:37:58.092Z,439.00
2023-02-13T04:38:28.202Z,443.00
2023-02-13T04:38:58.338Z,443.00
2023-02-13T04:39:28.436Z,446.00
2023-02-13T04:39:58.549Z,446.00
2023-02-13T04:40:28.674Z,447.00
2023-02-13T04:40:59.097Z,447.00
2023-02-13T04:41:28.773Z,446.00
2023-02-13T04:41:58.916Z,446.00
2023-02-13T04:42:28.999Z,446.00
2023-02-13T04:42:59.140Z,444.00
2023-02-13T04:43:29.227Z,443.00
2023-02-13T04:43:59.294Z,443.00
2023-02-13T04:44:29.415Z,445.00
2023-02-13T04:44:59.522Z,446.00
2023-02-13T04:45:29.641Z,446.00
2023-02-13T04:45:59.791Z,446.00
2023-02-13T04:46:29.820Z,445.00
2023-02-13T04:46:59.802Z,446.00
2023-02-13T04:47:29.922Z,445.00
2023-02-13T04:48:00.029Z,443.00
2023-02-13T04:48:30.157Z,443.00
2023-02-13T04:49:00.262Z,440.00
2023-02-13T04:49:30.370Z,446.00
2023-02-13T04:50:00.482Z,447.00
2023-02-13T04:50:30.592Z,447.00
2023-02-13T04:51:00.729Z,448.00
2023-02-13T04:51:30.841Z,449.00
2023-02-13T04:52:00.817Z,449.00
2023-02-13T04:52:30.935Z,451.00
2023-02-13T04:53:01.065Z,454.00
2023-02-13T04:53:31.164Z,454.00
2023-02-13T04:54:01.274Z,456.00
2023-02-13T04:54:31.393Z,457.00
2023-02-13T04:55:01.383Z,456.00
2023-02-13T04:55:31.498Z,458.00
2023-02-13T04:56:01.614Z,457.00
2023-02-13T04:56:31.740Z,457.00
2023-02-13T04:57:01.871Z,459.00
2023-02-13T04:57:31.969Z,462.00
2023-02-13T04:58:01.976Z,462.00
2023-02-13T04:58:32.082Z,460.00
2023-02-13T04:59:02.248Z,466.00
2023-02-13T04:59:32.244Z,470.00
2023-02-13T05:00:02.238Z,473.00
2023-02-13T05:00:32.335Z,477.00
2023-02-13T05:01:02.501Z,479.00
2023-02-13T05:01:32.502Z,485.00
2023-02-13T05:02:02.535Z,487.00
2023-02-13T05:02:32.636Z,487.00
2023-02-13T05:03:02.746Z,487.00
2023-02-13T05:03:32.868Z,487.00
2023-02-13T05:04:03.034Z,486.00
2023-02-13T05:04:33.058Z,486.00
2023-02-13T05:05:03.058Z,486.00
2023-02-13T05:05:33.170Z,485.00
2023-02-13T05:06:03.283Z,486.00
2023-02-13T05:06:33.407Z,485.00
2023-02-13T05:07:03.391Z,487.00
2023-02-13T05:07:33.477Z,497.00
2023-02-13T05:08:03.583Z,502.00
2023-02-13T05:08:33.688Z,505.00
2023-02-13T05:09:03.827Z,502.00
2023-02-13T05:09:33.917Z,503.00
2023-02-13T05:10:04.020Z,504.00
2023-02-13T05:10:34.124Z,504.00
2023-02-13T05:11:04.193Z,508.00
2023-02-13T05:11:34.274Z,509.00
2023-02-13T05:12:04.375Z,510.00
2023-02-13T05:12:34.436Z,512.00
2023-02-13T05:13:04.478Z,516.00
2023-02-13T05:13:34.547Z,517.00
2023-02-13T05:14:04.625Z,520.00
2023-02-13T05:14:34.726Z,521.00
2023-02-13T05:15:04.808Z,521.00
2023-02-13T05:15:34.985Z,521.00
2023-02-13T05:16:04.953Z,520.00
2023-02-13T05:16:34.966Z,518.00
2023-02-13T05:17:05.035Z,517.00
2023-02-13T05:17:35.110Z,517.00
2023-02-13T05:18:05.189Z,512.00
2023-02-13T05:18:35.253Z,515.00
2023-02-13T05:19:05.322Z,514.00
2023-02-13T05:19:35.399Z,513.00
2023-02-13T05:20:05.470Z,515.00
2023-02-13T05:20:35.549Z,515.00
2023-02-13T05:21:05.663Z,515.00
2023-02-13T05:21:35.780Z,516.00
2023-02-13T05:22:05.887Z,516.00
2023-02-13T05:22:36.007Z,515.00
2023-02-13T05:23:06.117Z,517.00
2023-02-13T05:23:36.227Z,518.00
2023-02-13T05:24:06.343Z,519.00
2023-02-13T05:24:36.457Z,519.00
2023-02-13T05:25:06.572Z,518.00
2023-02-13T05:25:36.705Z,518.00
2023-02-13T05:26:06.807Z,517.00
2023-02-13T05:26:36.934Z,515.00
2023-02-13T05:27:07.111Z,514.00
2023-02-13T05:27:37.060Z,514.00
2023-02-13T05:28:07.206Z,504.00
2023-02-13T05:28:37.225Z,521.00
2023-02-13T05:29:07.204Z,524.00
2023-02-13T05:29:37.320Z,521.00
2023-02-13T05:30:07.449Z,522.00
2023-02-13T05:30:37.437Z,524.00
2023-02-13T05:31:07.675Z,525.00
2023-02-13T05:31:37.699Z,526.00
2023-02-13T05:32:07.694Z,528.00
2023-02-13T05:32:37.692Z,528.00
2023-02-13T05:33:07.785Z,527.00
2023-02-13T05:33:37.894Z,526.00
2023-02-13T05:34:08.020Z,526.00
2023-02-13T05:34:38.009Z,526.00
2023-02-13T05:35:08.130Z,527.00
2023-02-13T05:35:38.248Z,526.00
2023-02-13T05:36:08.372Z,527.00
2023-02-13T05:36:38.476Z,529.00
2023-02-13T05:37:08.588Z,530.00
2023-02-13T05:37:38.700Z,530.00
2023-02-13T05:38:08.861Z,529.00
2023-02-13T05:38:38.857Z,528.00
2023-02-13T05:39:08.955Z,527.00
2023-02-13T05:39:39.063Z,527.00
2023-02-13T05:40:09.270Z,527.00
2023-02-13T05:40:39.259Z,527.00
2023-02-13T05:41:09.373Z,528.00
2023-02-13T05:41:39.488Z,527.00
2023-02-13T05:42:09.478Z,527.00
2023-02-13T05:42:39.616Z,528.00
2023-02-13T05:43:09.696Z,527.00
2023-02-13T05:43:39.694Z,528.00
2023-02-13T05:44:09.805Z,527.00
2023-02-13T05:44:39.812Z,527.00
2023-02-13T05:45:09.918Z,525.00
2023-02-13T05:45:40.040Z,521.00
2023-02-13T05:46:10.278Z,520.00
2023-02-13T05:46:40.351Z,520.00
2023-02-13T05:47:10.344Z,518.00
2023-02-13T05:47:40.446Z,519.00
2023-02-13T05:48:10.549Z,519.00
2023-02-13T05:48:40.658Z,522.00
2023-02-13T05:49:10.764Z,521.00
2023-02-13T05:49:40.881Z,522.00
2023-02-13T05:50:10.991Z,521.00
2023-02-13T05:50:41.113Z,520.00
2023-02-13T05:51:11.225Z,521.00
2023-02-13T05:51:41.333Z,518.00
2023-02-13T05:52:11.449Z,517.00
2023-02-13T05:52:41.567Z,519.00
2023-02-13T05:53:11.568Z,518.00
2023-02-13T05:53:41.684Z,518.00
2023-02-13T05:54:11.800Z,515.00
2023-02-13T05:54:41.914Z,517.00
2023-02-13T05:55:12.028Z,517.00
2023-02-13T05:55:42.144Z,517.00
2023-02-13T05:56:12.133Z,518.00
2023-02-13T05:56:42.253Z,521.00
2023-02-13T05:57:12.364Z,520.00
2023-02-13T05:57:42.504Z,519.00
2023-02-13T05:58:12.588Z,518.00
2023-02-13T05:58:42.716Z,519.00
2023-02-13T05:59:12.819Z,519.00
2023-02-13T05:59:42.931Z,519.00
2023-02-13T06:00:13.049Z,519.00
2023-02-13T06:00:43.043Z,518.00
2023-02-13T06:01:13.276Z,518.00
2023-02-13T06:01:43.273Z,515.00
2023-02-13T06:02:13.383Z,515.00
2023-02-13T06:02:43.565Z,513.00
2023-02-13T06:03:13.537Z,511.00
2023-02-13T06:03:43.695Z,511.00
2023-02-13T06:04:13.726Z,513.00
2023-02-13T06:04:43.740Z,513.00
2023-02-13T06:05:13.844Z,510.00
2023-02-13T06:05:43.982Z,512.00
2023-02-13T06:06:14.066Z,514.00
2023-02-13T06:06:44.192Z,515.00
2023-02-13T06:07:14.183Z,515.00
2023-02-13T06:07:44.169Z,515.00
2023-02-13T06:08:14.285Z,515.00
2023-02-13T06:08:44.388Z,514.00
2023-02-13T06:09:14.505Z,514.00
2023-02-13T06:09:44.615Z,516.00
2023-02-13T06:10:14.732Z,514.00
2023-02-13T06:10:45.244Z,514.00
2023-02-13T06:11:14.869Z,514.00
2023-02-13T06:11:44.950Z,514.00
2023-02-13T06:12:15.022Z,512.00
2023-02-13T06:12:45.124Z,514.00
2023-02-13T06:13:15.182Z,514.00
2023-02-13T06:13:45.250Z,514.00
2023-02-13T06:14:15.329Z,515.00
2023-02-13T06:14:45.394Z,514.00
2023-02-13T06:15:15.481Z,513.00
2023-02-13T06:15:45.615Z,513.00